• Join FlightAware (Why Join?)
  • Login
  • US Flag 
02:53PM EDT


 

Airport Tracker/Info


-or-


 

Live Flight TrackerFlight Track Log ✈ EJA122 ✈ 17-Oct-2013 ✈ KIAD - KBKL

Flight Track Log - Related Links

Times and Time Zones

All times are in EDT time to prevent confusion due to time zone crossing. See the EJA122 flight status page for this flight to view local times or setup timezone preferences in your user account.

Time Position Orientation Groundspeed Altitude Reporting Facility
EDT Latitude Longitude Course Direction KTS MPH feet Rate Location/Type
10:13AM 38.9833 -77.5333 293° West 219 252 4,000  Level Potomac TRACON
10:14AM 39.0333 -77.6000 314° West 263 303 5,500 2,520 Climbing Potomac TRACON
10:15AM 39.0833 -77.6333 333° Northwest 292 336 8,900 2,880 Climbing Potomac TRACON
10:16AM 39.1442 -77.6308 North 305 351 10,600 1,560 Climbing Washington Center
10:17AM 39.2400 -77.6389 356° North 319 367 11,800 1,440 Climbing Washington Center
10:18AM 39.3436 -77.6714 346° North 345 397 13,600 1,860 Climbing Washington Center
10:19AM 39.3283 -78.0509 293° West  Level Estimated
10:19AM 39.4472 -77.7067 345° North 364 419 15,600  Level Washington Center
10:21AM 39.6114 -77.8594 324° Northwest 368 423 19,200 1,440 Climbing Cleveland Center
10:22AM 39.6906 -77.9422 321° Northwest 365 420 20,000 360 Climbing Cleveland Center
10:23AM 39.7761 -78.0308 321° Northwest 383 441 20,000  Level Cleveland Center
10:24AM 39.8619 -78.1283 319° Northwest 402 463 20,000  Level Cleveland Center
10:25AM 39.9478 -78.2647 309° West 403 464 20,000  Level Cleveland Center
10:26AM 40.0228 -78.3781 311° West 401 461 20,000  Level Cleveland Center
10:27AM 40.0936 -78.4872 310° West 397 457 20,000  Level Cleveland Center
10:28AM 40.1647 -78.5953 311° West 396 456 20,000  Level Cleveland Center
10:29AM 40.2353 -78.7042 310° West 393 452 20,000  Level Cleveland Center
10:30AM 40.3056 -78.8139 310° West 394 453 20,000  Level Cleveland Center
10:31AM 40.3847 -78.9511 307° West 394 453 20,000  Level Cleveland Center
10:32AM 40.4519 -79.0722 306° West 411 473 20,000  Level Cleveland Center
10:33AM 40.5194 -79.1917 307° West 405 466 20,000  Level Cleveland Center
10:35AM 40.5831 -79.3064 306° West 407 468 20,000  Level Cleveland Center
10:36AM 40.6508 -79.4267 307° West 411 473 20,000  Level Cleveland Center
10:37AM 40.7308 -79.5700 306° West 409 471 20,000  Level Cleveland Center
10:38AM 40.7972 -79.6894 306° West 407 468 20,000  Level Cleveland Center
10:39AM 40.8628 -79.8094 306° West 407 468 20,000  Level Cleveland Center
10:40AM 40.9289 -79.9300 306° West 409 471 20,000 -300 Level Cleveland Center
10:41AM 40.9950 -80.0497 306° West 407 468 19,500 -1,140 Descending Cleveland Center
10:42AM 41.0703 -80.1889 306° West 392 451 17,700 -1,620 Descending Cleveland Center
10:43AM 41.1322 -80.3050 305° West 389 448 16,200 -840 Descending Cleveland Center
10:44AM 41.1997 -80.4294 306° West 389 448 16,000 -120 Descending Cleveland Center
10:45AM 41.2628 -80.5458 306° West 386 444 16,000 -540 Level Cleveland Center
10:46AM 41.3253 -80.6631 305° West 386 444 14,900 -1,560 Descending Cleveland Center
10:47AM 41.3647 -80.7650 297° West 363 418 13,300 -1,980 Descending Cleveland Center
10:47AM 41.3733 -80.7833 302° West 368 423 12,900 -1,920 Descending Cleveland Center
10:48AM 41.4128 -80.8919 296° West 310 357 11,000 -1,860 Descending Cleveland Center
10:48AM 41.4133 -80.8914 37° Northeast 326 375 11,000 -1,740 Level Cleveland Center
10:49AM 41.4419 -80.9686 296° West 271 312 9,600 -1,680 Descending Cleveland Center
10:49AM 41.4489 -80.9839 301° West 282 325 9,300 -1,620 Descending Cleveland Center
10:50AM 41.4767 -81.0547 298° West 262 302 8,000 -1,860 Descending Cleveland Center
10:50AM 41.4872 -81.0875 293° West 268 308 7,400 -1,620 Descending Cleveland Center
10:51AM 41.5092 -81.1406 299° West 259 298 6,400 -1,560 Descending Cleveland Center
10:51AM 41.5175 -81.1728 289° West 258 297 5,800 -1,500 Descending Cleveland Center
10:52AM 41.5242 -81.2322 279° West 259 298 4,900 -1,500 Descending Cleveland Center
10:52AM 41.5292 -81.2664 281° West 254 292 4,300 -1,740 Descending Cleveland Center
10:53AM 41.5428 -81.3328 285° West 265 305 3,200 -840 Descending Cleveland Center
10:54AM 41.5575 -81.4275 282° West 253 291 3,000 -180 Descending Cleveland Center
10:54AM 41.5594 -81.4486 277° West 245 282 3,000 -360 Level Cleveland Center
10:55AM 41.5714 -81.5078 285° West 209 241 2,600 -420 Descending Cleveland Center
10:55AM 41.5717 -81.5256 271° West 219 252 2,600 -300 Level Cleveland Center
10:56AM 41.5675 -81.5742 263° West 180 207 2,300 -600 Descending Cleveland Center
10:56AM 41.5558 -81.5958 234° Southwest 184 212 2,000 -720 Descending Cleveland Center
10:57AM 41.5461 -81.6239 245° Southwest 141 162 1,600 -780 Descending Cleveland Center
10:57AM 41.5353 -81.6400 228° Southwest 156 180 1,200 -720 Descending Cleveland Center
10:58AM 41.5283 -81.6603 245° Southwest 115 132 900 -540 Descending Cleveland Center
10:58AM 41.5206 -81.6706 225° Southwest 134 154 700 -480 Descending Cleveland Center
11:00AM 41.5167 -81.6667 242° Southwest  Level FlightAware Approximate